createdAt,value
2023-01-02T00:01:50.031Z,11.90
2023-01-02T00:05:58.789Z,11.90
2023-01-02T00:10:26.742Z,11.90
2023-01-02T00:14:35.238Z,11.90
2023-01-02T00:18:43.844Z,11.90
2023-01-02T00:22:52.467Z,11.90
2023-01-02T00:27:20.363Z,11.90
2023-01-02T00:31:29.040Z,11.90
2023-01-02T00:35:39.257Z,11.90
2023-01-02T00:39:47.869Z,11.90
2023-01-02T00:43:56.387Z,12.00
2023-01-02T00:48:05.103Z,12.00
2023-01-02T00:52:13.755Z,12.00
2023-01-02T00:56:22.344Z,12.00
2023-01-02T01:00:31.094Z,12.00
2023-01-02T01:04:39.745Z,12.10
2023-01-02T01:09:08.938Z,12.00
2023-01-02T01:13:17.584Z,12.10
2023-01-02T01:17:26.091Z,12.10
2023-01-02T01:21:34.727Z,12.10
2023-01-02T01:25:43.305Z,12.10
2023-01-02T01:29:52.009Z,12.20
2023-01-02T01:34:00.624Z,12.20
2023-01-02T01:38:09.141Z,12.30
2023-01-02T01:42:19.722Z,12.30
2023-01-02T01:46:48.118Z,12.40
2023-01-02T01:50:56.989Z,12.40
2023-01-02T01:55:15.855Z,12.50
2023-01-02T01:59:24.977Z,12.50
2023-01-02T02:03:35.684Z,12.60
2023-01-02T02:07:47.440Z,12.60
2023-01-02T02:11:56.738Z,12.60
2023-01-02T02:16:17.427Z,12.50
2023-01-02T02:20:32.133Z,12.40
2023-01-02T02:24:58.920Z,12.40
2023-01-02T02:29:45.027Z,12.40
2023-01-02T02:33:59.582Z,12.40
2023-01-02T02:38:16.951Z,12.30
2023-01-02T02:42:39.999Z,12.30
2023-01-02T02:46:51.698Z,12.30
2023-01-02T02:51:03.242Z,12.30
2023-01-02T02:55:20.577Z,12.30
2023-01-02T02:59:29.828Z,12.40
2023-01-02T03:03:38.389Z,12.30
2023-01-02T03:08:01.777Z,12.30
2023-01-02T03:12:22.485Z,12.30
2023-01-02T03:16:46.523Z,12.40
2023-01-02T03:21:01.013Z,12.40
2023-01-02T03:25:12.924Z,12.40
2023-01-02T03:29:24.873Z,12.40
2023-01-02T03:33:36.886Z,12.50
2023-01-02T03:37:48.556Z,12.50
2023-01-02T03:42:02.467Z,12.60
2023-01-02T03:46:20.228Z,12.60
2023-01-02T03:50:31.892Z,12.70
2023-01-02T03:54:40.687Z,12.60
2023-01-02T03:59:01.079Z,12.60
2023-01-02T04:03:27.916Z,12.60
2023-01-02T04:07:42.408Z,12.70
2023-01-02T04:11:54.046Z,12.60
2023-01-02T04:16:05.424Z,12.50
2023-01-02T04:20:20.048Z,12.50
2023-01-02T04:24:31.781Z,12.50
2023-01-02T04:28:40.513Z,12.50
2023-01-02T04:32:49.532Z,12.40
2023-01-02T04:36:58.177Z,12.50
2023-01-02T04:41:07.865Z,12.40
2023-01-02T04:45:16.661Z,12.40
2023-01-02T04:49:27.235Z,12.40
2023-01-02T04:53:35.863Z,12.50
2023-01-02T04:57:44.564Z,12.50
2023-01-02T05:01:53.683Z,12.40
2023-01-02T05:06:02.797Z,12.50
2023-01-02T05:10:11.520Z,12.50
2023-01-02T05:14:20.137Z,12.50
2023-01-02T05:18:32.635Z,12.50
2023-01-02T05:23:00.338Z,12.40
2023-01-02T05:27:28.312Z,12.40
2023-01-02T05:31:36.864Z,12.40
2023-01-02T05:35:45.378Z,12.50
2023-01-02T05:39:53.993Z,12.50
2023-01-02T05:44:02.485Z,12.50
2023-01-02T05:48:11.072Z,12.50
2023-01-02T05:52:19.652Z,12.50
2023-01-02T05:56:29.840Z,12.60
2023-01-02T06:00:38.403Z,12.50
2023-01-02T06:04:46.955Z,12.60
2023-01-02T06:08:55.623Z,12.50
2023-01-02T06:13:04.188Z,12.50
2023-01-02T06:17:12.776Z,12.40
2023-01-02T06:21:22.660Z,12.50
2023-01-02T06:25:31.270Z,12.50
2023-01-02T06:29:39.790Z,12.50
2023-01-02T06:34:00.323Z,12.50
2023-01-02T06:38:08.894Z,12.50
2023-01-02T06:42:20.220Z,12.40
2023-01-02T06:46:28.844Z,12.50
2023-01-02T06:50:37.889Z,12.40
2023-01-02T06:54:46.446Z,12.40
2023-01-02T06:58:55.017Z,12.50
2023-01-02T07:03:03.597Z,12.40
2023-01-02T07:07:12.172Z,12.30
2023-01-02T07:11:25.497Z,12.30
2023-01-02T07:15:36.559Z,12.30
2023-01-02T07:19:49.828Z,12.30
2023-01-02T07:23:55.219Z,12.20
2023-01-02T07:28:03.789Z,12.20
2023-01-02T07:32:12.395Z,12.20
2023-01-02T07:36:22.475Z,12.30
2023-01-02T07:40:32.451Z,12.20
2023-01-02T07:44:41.193Z,12.20
2023-01-02T07:48:50.569Z,12.30
2023-01-02T07:52:59.165Z,12.30
2023-01-02T07:57:07.821Z,12.20
2023-01-02T08:01:16.447Z,12.20
2023-01-02T08:05:25.180Z,12.20
2023-01-02T08:09:33.714Z,12.20
2023-01-02T08:13:42.858Z,12.30
2023-01-02T08:17:51.411Z,12.20
2023-01-02T08:22:00.002Z,12.30
2023-01-02T08:26:10.886Z,12.30
2023-01-02T08:30:19.618Z,12.10
2023-01-02T08:34:28.246Z,11.90
2023-01-02T08:38:37.315Z,11.60
2023-01-02T08:42:46.013Z,11.50
2023-01-02T08:46:54.606Z,11.50
2023-01-02T08:51:03.761Z,11.40
2023-01-02T08:55:13.407Z,11.30
2023-01-02T08:59:24.648Z,11.30
2023-01-02T09:03:33.237Z,11.30
2023-01-02T09:07:43.137Z,11.30
2023-01-02T09:11:53.048Z,11.20
2023-01-02T09:16:01.684Z,11.10
2023-01-02T09:20:10.902Z,11.20
2023-01-02T09:24:38.832Z,11.20
2023-01-02T09:28:47.864Z,11.10
2023-01-02T09:32:56.494Z,11.00
2023-01-02T09:37:05.081Z,11.10
2023-01-02T09:41:46.647Z,11.10
2023-01-02T09:45:58.352Z,11.30
2023-01-02T09:50:12.781Z,11.30
2023-01-02T09:54:32.911Z,11.10
2023-01-02T09:59:04.343Z,11.10
2023-01-02T10:03:31.180Z,11.10
2023-01-02T10:07:45.896Z,11.10
2023-01-02T10:12:14.158Z,11.10
2023-01-02T10:16:26.755Z,11.00
2023-01-02T10:20:38.472Z,11.10
2023-01-02T10:24:50.092Z,11.20
2023-01-02T10:29:10.261Z,11.10
2023-01-02T10:33:46.454Z,11.10
2023-01-02T10:37:56.416Z,11.10
2023-01-02T10:42:06.719Z,11.10
2023-01-02T10:46:15.373Z,11.00
2023-01-02T10:50:26.418Z,11.00
2023-01-02T10:54:55.048Z,11.10
2023-01-02T10:59:01.150Z,11.00
2023-01-02T11:03:26.090Z,10.90
2023-01-02T11:07:37.788Z,10.90
2023-01-02T11:11:57.445Z,10.80
2023-01-02T11:16:07.233Z,10.80
2023-01-02T11:20:22.648Z,10.90
2023-01-02T11:24:32.689Z,10.80
2023-01-02T11:28:42.664Z,10.80
2023-01-02T11:32:54.328Z,10.90
2023-01-02T11:37:05.269Z,11.00
2023-01-02T11:41:50.719Z,10.90
2023-01-02T11:45:59.486Z,11.00
2023-01-02T11:50:30.209Z,11.00
2023-01-02T11:54:41.842Z,11.20
2023-01-02T11:59:05.607Z,11.20
2023-01-02T12:03:26.787Z,11.20
2023-01-02T12:07:46.934Z,11.20
2023-01-02T12:12:19.881Z,11.40
2023-01-02T12:16:31.513Z,11.30
2023-01-02T12:20:43.170Z,11.40
2023-01-02T12:25:12.693Z,11.30
2023-01-02T12:29:48.223Z,11.20
2023-01-02T12:34:06.408Z,11.30
2023-01-02T12:38:22.487Z,11.20
2023-01-02T12:42:40.340Z,11.10
2023-01-02T12:46:54.518Z,11.10
2023-01-02T12:51:12.156Z,11.10
2023-01-02T12:55:46.381Z,11.20
2023-01-02T13:00:29.054Z,11.10
2023-01-02T13:04:40.693Z,11.20
2023-01-02T13:08:55.280Z,11.20
2023-01-02T13:13:04.319Z,11.10
2023-01-02T13:17:25.844Z,11.20
2023-01-02T13:21:47.573Z,11.10
2023-01-02T13:26:18.959Z,11.20
2023-01-02T13:30:40.096Z,11.10
2023-01-02T13:34:53.633Z,11.20
2023-01-02T13:39:08.484Z,11.30
2023-01-02T13:43:20.193Z,11.20
2023-01-02T13:47:49.698Z,11.20
2023-01-02T13:52:02.942Z,11.10
2023-01-02T13:56:19.905Z,11.00
2023-01-02T14:00:37.040Z,10.90
2023-01-02T14:04:45.756Z,11.00
2023-01-02T14:09:15.334Z,11.00
2023-01-02T14:13:30.032Z,10.90
2023-01-02T14:18:08.491Z,10.80
2023-01-02T14:22:19.069Z,10.70
2023-01-02T14:26:30.690Z,10.70
2023-01-02T14:30:41.767Z,10.80
2023-01-02T14:34:53.693Z,10.90
2023-01-02T14:39:02.437Z,10.80
2023-01-02T14:43:32.278Z,10.70
2023-01-02T14:48:03.609Z,10.60
2023-01-02T14:52:18.125Z,10.60
2023-01-02T14:56:35.476Z,10.50
2023-01-02T15:00:46.712Z,10.50
2023-01-02T15:05:02.920Z,10.50
2023-01-02T15:09:23.324Z,10.50
2023-01-02T15:13:33.471Z,10.50
2023-01-02T15:17:46.858Z,10.50
2023-01-02T15:21:56.211Z,10.50
2023-01-02T15:26:31.570Z,10.50
2023-01-02T15:30:25.400Z,10.40
2023-01-02T15:34:34.838Z,10.40
2023-01-02T15:38:44.916Z,10.40
2023-01-02T15:43:13.519Z,10.30
2023-01-02T15:47:27.952Z,10.30
2023-01-02T15:51:40.208Z,10.30
2023-01-02T15:55:44.023Z,10.30
2023-01-02T15:59:52.879Z,10.30
2023-01-02T16:04:05.778Z,10.30
2023-01-02T16:08:23.424Z,10.30
2023-01-02T16:12:32.970Z,10.30
2023-01-02T16:17:05.397Z,10.30
2023-01-02T16:21:35.076Z,10.40
2023-01-02T16:25:46.162Z,10.30
2023-01-02T16:29:55.406Z,10.30
2023-01-02T16:34:15.421Z,10.40
2023-01-02T16:38:28.228Z,10.30
2023-01-02T16:42:39.605Z,10.40
2023-01-02T16:46:49.963Z,10.40
2023-01-02T16:50:59.567Z,10.30
2023-01-02T16:55:10.374Z,10.20
2023-01-02T16:59:19.059Z,10.00
2023-01-02T17:03:28.630Z,9.90
2023-01-02T17:07:37.210Z,9.90
2023-01-02T17:11:49.542Z,9.90
2023-01-02T17:15:58.514Z,9.80
2023-01-02T17:20:09.425Z,9.70
2023-01-02T17:24:19.115Z,9.60
2023-01-02T17:28:27.705Z,9.70
2023-01-02T17:32:36.223Z,9.60
2023-01-02T17:36:45.342Z,9.50
2023-01-02T17:41:00.162Z,9.50
2023-01-02T17:45:09.807Z,9.50
2023-01-02T17:49:18.760Z,9.60
2023-01-02T17:53:27.406Z,9.50
2023-01-02T17:57:37.504Z,9.50
2023-01-02T18:01:47.359Z,9.50
2023-01-02T18:05:56.512Z,9.40
2023-01-02T18:10:09.333Z,9.40
2023-01-02T18:14:21.324Z,9.30
2023-01-02T18:18:32.593Z,9.30
2023-01-02T18:22:48.524Z,9.30
2023-01-02T18:31:16.391Z,9.20
2023-01-02T18:39:42.264Z,9.20
2023-01-02T18:43:54.230Z,9.20
2023-01-02T18:48:02.823Z,9.20
2023-01-02T18:52:24.254Z,9.20
2023-01-02T18:56:32.952Z,9.20
2023-01-02T19:00:41.611Z,9.20
2023-01-02T19:05:20.449Z,9.20
2023-01-02T19:09:48.429Z,9.20
2023-01-02T19:13:59.071Z,9.20
2023-01-02T19:18:19.777Z,9.20
2023-01-02T19:22:45.348Z,9.20
2023-01-02T19:26:56.947Z,9.20
2023-01-02T19:31:08.773Z,9.20
2023-01-02T19:35:39.393Z,9.20
2023-01-02T19:40:06.474Z,9.20
2023-01-02T19:44:15.080Z,9.10
2023-01-02T19:48:23.724Z,9.10
2023-01-02T19:52:32.342Z,9.20
2023-01-02T19:57:00.319Z,9.20
2023-01-02T20:01:08.991Z,9.20
2023-01-02T20:05:21.715Z,9.20
2023-01-02T20:09:29.586Z,9.30
2023-01-02T20:13:38.111Z,9.30
2023-01-02T20:18:08.928Z,9.20
2023-01-02T20:22:17.699Z,9.20
2023-01-02T20:26:26.331Z,9.20
2023-01-02T20:30:34.971Z,9.30
2023-01-02T20:34:43.541Z,9.20
2023-01-02T20:38:52.775Z,9.30
2023-01-02T20:43:01.347Z,9.20
2023-01-02T20:47:11.827Z,9.30
2023-01-02T20:51:20.451Z,9.30
2023-01-02T20:55:29.108Z,9.20
2023-01-02T20:59:37.905Z,9.30
2023-01-02T21:03:46.650Z,9.20
2023-01-02T21:07:57.656Z,9.10
2023-01-02T21:12:08.096Z,9.00
2023-01-02T21:16:16.946Z,8.90
2023-01-02T21:20:25.663Z,8.90
2023-01-02T21:24:53.650Z,8.80
2023-01-02T21:29:03.033Z,8.80
2023-01-02T21:33:16.652Z,8.80
2023-01-02T21:37:25.879Z,8.80
2023-01-02T21:41:52.528Z,8.70
2023-01-02T21:46:01.161Z,8.70
2023-01-02T21:50:10.405Z,8.60
2023-01-02T21:54:19.034Z,8.60
2023-01-02T21:58:27.595Z,8.60
2023-01-02T22:02:38.823Z,8.60
2023-01-02T22:07:29.406Z,8.50
2023-01-02T22:11:00.458Z,8.50
2023-01-02T22:15:12.046Z,8.50
2023-01-02T22:19:20.839Z,8.50
2023-01-02T22:23:29.690Z,8.50
2023-01-02T22:27:39.095Z,8.50
2023-01-02T22:31:48.900Z,8.40
2023-01-02T22:35:57.479Z,8.40
2023-01-02T22:40:06.585Z,8.40
2023-01-02T22:44:19.291Z,8.30
2023-01-02T22:48:47.247Z,8.30
2023-01-02T22:52:56.658Z,8.30
2023-01-02T22:57:08.283Z,8.30
2023-01-02T23:01:32.444Z,8.30
2023-01-02T23:05:41.429Z,8.30
2023-01-02T23:09:50.516Z,8.30
2023-01-02T23:14:00.308Z,8.30
2023-01-02T23:18:27.393Z,8.30
2023-01-02T23:22:35.940Z,8.30
2023-01-02T23:27:08.193Z,8.30
2023-01-02T23:31:16.942Z,8.30
2023-01-02T23:35:27.188Z,8.20
2023-01-02T23:39:36.228Z,8.20
2023-01-02T23:43:44.921Z,8.10
2023-01-02T23:47:53.482Z,8.10
2023-01-02T23:52:02.112Z,8.10
2023-01-02T23:56:19.795Z,8.10
